sensor_id;sensor_type;location;lat;lon;timestamp;P1;durP1;ratioP1;P2;durP2;ratioP2
79401;SDS011;68857;47.916;106.940;2023-05-29T00:01:29;4.75;;;2.47;;
79401;SDS011;68857;47.916;106.940;2023-05-29T00:03:56;4.72;;;3.30;;
79401;SDS011;68857;47.916;106.940;2023-05-29T00:06:23;4.05;;;2.90;;
79401;SDS011;68857;47.916;106.940;2023-05-29T00:08:50;4.25;;;2.97;;
79401;SDS011;68857;47.916;106.940;2023-05-29T00:11:16;4.57;;;2.42;;
79401;SDS011;68857;47.916;106.940;2023-05-29T00:13:43;4.05;;;2.47;;
79401;SDS011;68857;47.916;106.940;2023-05-29T00:16:09;4.32;;;2.47;;
79401;SDS011;68857;47.916;106.940;2023-05-29T00:18:36;4.82;;;1.70;;
79401;SDS011;68857;47.916;106.940;2023-05-29T00:21:10;5.40;;;2.20;;
79401;SDS011;68857;47.916;106.940;2023-05-29T00:23:38;4.80;;;1.92;;
79401;SDS011;68857;47.916;106.940;2023-05-29T00:26:04;5.40;;;3.00;;
79401;SDS011;68857;47.916;106.940;2023-05-29T00:28:31;4.97;;;2.70;;
79401;SDS011;68857;47.916;106.940;2023-05-29T00:30:57;5.20;;;2.78;;
79401;SDS011;68857;47.916;106.940;2023-05-29T00:33:24;4.47;;;2.30;;
79401;SDS011;68857;47.916;106.940;2023-05-29T00:35:50;5.18;;;2.45;;
79401;SDS011;68857;47.916;106.940;2023-05-29T00:38:17;5.43;;;2.15;;
79401;SDS011;68857;47.916;106.940;2023-05-29T00:40:43;3.47;;;2.17;;
79401;SDS011;68857;47.916;106.940;2023-05-29T00:43:10;4.22;;;2.13;;
79401;SDS011;68857;47.916;106.940;2023-05-29T00:45:36;3.78;;;2.53;;
79401;SDS011;68857;47.916;106.940;2023-05-29T00:48:03;4.30;;;2.42;;
79401;SDS011;68857;47.916;106.940;2023-05-29T00:50:30;4.50;;;2.92;;
79401;SDS011;68857;47.916;106.940;2023-05-29T00:52:58;4.97;;;2.67;;
79401;SDS011;68857;47.916;106.940;2023-05-29T00:55:25;4.10;;;2.10;;
79401;SDS011;68857;47.916;106.940;2023-05-29T00:57:52;4.07;;;2.60;;
79401;SDS011;68857;47.916;106.940;2023-05-29T01:00:18;4.45;;;2.30;;
79401;SDS011;68857;47.916;106.940;2023-05-29T01:02:45;5.00;;;2.45;;
79401;SDS011;68857;47.916;106.940;2023-05-29T01:05:12;4.97;;;3.00;;
79401;SDS011;68857;47.916;106.940;2023-05-29T01:07:42;7.25;;;3.03;;
79401;SDS011;68857;47.916;106.940;2023-05-29T01:10:09;4.93;;;4.43;;
79401;SDS011;68857;47.916;106.940;2023-05-29T01:15:07;6.43;;;2.40;;
79401;SDS011;68857;47.916;106.940;2023-05-29T01:17:43;4.88;;;2.40;;
79401;SDS011;68857;47.916;106.940;2023-05-29T01:25:23;5.55;;;2.95;;
79401;SDS011;68857;47.916;106.940;2023-05-29T01:27:50;3.95;;;2.28;;
79401;SDS011;68857;47.916;106.940;2023-05-29T01:30:18;4.88;;;3.55;;
79401;SDS011;68857;47.916;106.940;2023-05-29T01:32:45;5.72;;;2.47;;
79401;SDS011;68857;47.916;106.940;2023-05-29T01:35:12;4.72;;;3.85;;
79401;SDS011;68857;47.916;106.940;2023-05-29T01:37:38;4.50;;;2.53;;
79401;SDS011;68857;47.916;106.940;2023-05-29T01:40:06;4.85;;;2.60;;
79401;SDS011;68857;47.916;106.940;2023-05-29T01:42:32;3.78;;;1.95;;
79401;SDS011;68857;47.916;106.940;2023-05-29T01:44:59;4.35;;;2.35;;
79401;SDS011;68857;47.916;106.940;2023-05-29T01:47:26;7.18;;;2.40;;
79401;SDS011;68857;47.916;106.940;2023-05-29T01:49:53;3.53;;;1.92;;
79401;SDS011;68857;47.916;106.940;2023-05-29T01:52:20;5.32;;;3.15;;
79401;SDS011;68857;47.916;106.940;2023-05-29T01:54:47;6.68;;;3.15;;
79401;SDS011;68857;47.916;106.940;2023-05-29T01:57:13;4.93;;;2.70;;
79401;SDS011;68857;47.916;106.940;2023-05-29T01:59:40;4.60;;;2.63;;
79401;SDS011;68857;47.916;106.940;2023-05-29T02:02:07;4.80;;;2.65;;
79401;SDS011;68857;47.916;106.940;2023-05-29T02:04:34;4.32;;;2.63;;
79401;SDS011;68857;47.916;106.940;2023-05-29T02:07:00;3.60;;;2.88;;
79401;SDS011;68857;47.916;106.940;2023-05-29T02:09:27;4.85;;;2.95;;
79401;SDS011;68857;47.916;106.940;2023-05-29T02:11:54;5.80;;;3.03;;
79401;SDS011;68857;47.916;106.940;2023-05-29T02:14:21;4.90;;;2.60;;
79401;SDS011;68857;47.916;106.940;2023-05-29T02:16:49;5.18;;;2.55;;
79401;SDS011;68857;47.916;106.940;2023-05-29T02:19:17;7.03;;;4.03;;
79401;SDS011;68857;47.916;106.940;2023-05-29T02:21:44;4.78;;;2.80;;
79401;SDS011;68857;47.916;106.940;2023-05-29T02:24:10;7.68;;;3.53;;
79401;SDS011;68857;47.916;106.940;2023-05-29T02:26:37;5.88;;;3.67;;
79401;SDS011;68857;47.916;106.940;2023-05-29T02:29:04;4.47;;;2.95;;
79401;SDS011;68857;47.916;106.940;2023-05-29T02:31:31;6.45;;;3.55;;
79401;SDS011;68857;47.916;106.940;2023-05-29T02:33:57;5.28;;;3.95;;
79401;SDS011;68857;47.916;106.940;2023-05-29T02:36:24;6.03;;;3.70;;
79401;SDS011;68857;47.916;106.940;2023-05-29T02:38:50;5.45;;;4.22;;
79401;SDS011;68857;47.916;106.940;2023-05-29T02:41:17;6.82;;;3.95;;
79401;SDS011;68857;47.916;106.940;2023-05-29T02:43:44;6.35;;;4.68;;
79401;SDS011;68857;47.916;106.940;2023-05-29T02:46:10;6.63;;;4.05;;
79401;SDS011;68857;47.916;106.940;2023-05-29T02:48:37;6.00;;;3.42;;
79401;SDS011;68857;47.916;106.940;2023-05-29T02:51:03;5.20;;;3.22;;
79401;SDS011;68857;47.916;106.940;2023-05-29T02:53:30;6.32;;;4.10;;
79401;SDS011;68857;47.916;106.940;2023-05-29T02:55:57;7.97;;;4.45;;
79401;SDS011;68857;47.916;106.940;2023-05-29T02:58:23;5.95;;;3.97;;
79401;SDS011;68857;47.916;106.940;2023-05-29T03:00:50;6.97;;;4.03;;
79401;SDS011;68857;47.916;106.940;2023-05-29T03:03:16;6.07;;;4.22;;
79401;SDS011;68857;47.916;106.940;2023-05-29T03:05:46;7.32;;;4.60;;
79401;SDS011;68857;47.916;106.940;2023-05-29T03:08:13;5.57;;;4.15;;
79401;SDS011;68857;47.916;106.940;2023-05-29T03:10:39;6.40;;;4.75;;
79401;SDS011;68857;47.916;106.940;2023-05-29T03:13:06;5.35;;;4.55;;
79401;SDS011;68857;47.916;106.940;2023-05-29T03:15:33;6.97;;;3.75;;
79401;SDS011;68857;47.916;106.940;2023-05-29T03:17:59;6.15;;;4.50;;
79401;SDS011;68857;47.916;106.940;2023-05-29T03:20:26;6.13;;;4.57;;
79401;SDS011;68857;47.916;106.940;2023-05-29T03:22:53;6.30;;;4.53;;
79401;SDS011;68857;47.916;106.940;2023-05-29T03:25:19;7.20;;;4.18;;
79401;SDS011;68857;47.916;106.940;2023-05-29T03:27:46;6.07;;;4.35;;
79401;SDS011;68857;47.916;106.940;2023-05-29T03:30:13;6.93;;;4.97;;
79401;SDS011;68857;47.916;106.940;2023-05-29T03:32:40;5.55;;;4.60;;
79401;SDS011;68857;47.916;106.940;2023-05-29T03:35:07;6.05;;;4.88;;
79401;SDS011;68857;47.916;106.940;2023-05-29T03:37:33;6.50;;;5.07;;
79401;SDS011;68857;47.916;106.940;2023-05-29T03:40:00;7.28;;;4.75;;
79401;SDS011;68857;47.916;106.940;2023-05-29T03:42:26;6.47;;;5.05;;
79401;SDS011;68857;47.916;106.940;2023-05-29T03:44:53;7.18;;;4.10;;
79401;SDS011;68857;47.916;106.940;2023-05-29T03:47:20;5.93;;;4.57;;
79401;SDS011;68857;47.916;106.940;2023-05-29T03:49:46;6.65;;;4.40;;
79401;SDS011;68857;47.916;106.940;2023-05-29T03:52:13;7.47;;;5.35;;
79401;SDS011;68857;47.916;106.940;2023-05-29T03:54:39;6.47;;;4.55;;
79401;SDS011;68857;47.916;106.940;2023-05-29T03:57:06;8.25;;;5.35;;
79401;SDS011;68857;47.916;106.940;2023-05-29T03:59:34;6.40;;;5.13;;
79401;SDS011;68857;47.916;106.940;2023-05-29T04:02:00;6.90;;;5.38;;
79401;SDS011;68857;47.916;106.940;2023-05-29T04:04:28;6.53;;;5.00;;
79401;SDS011;68857;47.916;106.940;2023-05-29T04:06:54;7.07;;;6.22;;
79401;SDS011;68857;47.916;106.940;2023-05-29T04:09:22;5.70;;;4.40;;
79401;SDS011;68857;47.916;106.940;2023-05-29T04:11:48;6.65;;;4.65;;
79401;SDS011;68857;47.916;106.940;2023-05-29T04:14:17;6.20;;;5.10;;
79401;SDS011;68857;47.916;106.940;2023-05-29T04:16:44;8.23;;;5.10;;
79401;SDS011;68857;47.916;106.940;2023-05-29T04:19:10;7.30;;;5.50;;
79401;SDS011;68857;47.916;106.940;2023-05-29T04:21:37;7.55;;;5.93;;
79401;SDS011;68857;47.916;106.940;2023-05-29T04:24:03;5.45;;;4.32;;
79401;SDS011;68857;47.916;106.940;2023-05-29T04:26:30;7.22;;;4.90;;
79401;SDS011;68857;47.916;106.940;2023-05-29T04:28:57;6.70;;;4.85;;
79401;SDS011;68857;47.916;106.940;2023-05-29T04:31:24;5.93;;;4.68;;
79401;SDS011;68857;47.916;106.940;2023-05-29T04:33:52;7.20;;;4.07;;
79401;SDS011;68857;47.916;106.940;2023-05-29T04:36:21;5.88;;;4.20;;
79401;SDS011;68857;47.916;106.940;2023-05-29T04:38:51;6.30;;;5.03;;
79401;SDS011;68857;47.916;106.940;2023-05-29T04:41:17;6.53;;;4.75;;
79401;SDS011;68857;47.916;106.940;2023-05-29T04:43:44;5.72;;;4.72;;
79401;SDS011;68857;47.916;106.940;2023-05-29T04:46:11;4.68;;;3.35;;
79401;SDS011;68857;47.916;106.940;2023-05-29T04:48:38;5.75;;;3.92;;
79401;SDS011;68857;47.916;106.940;2023-05-29T04:51:07;6.82;;;4.78;;
79401;SDS011;68857;47.916;106.940;2023-05-29T04:53:37;6.90;;;4.25;;
79401;SDS011;68857;47.916;106.940;2023-05-29T04:56:05;6.28;;;4.28;;
79401;SDS011;68857;47.916;106.940;2023-05-29T04:58:32;6.28;;;4.95;;
79401;SDS011;68857;47.916;106.940;2023-05-29T05:00:58;6.28;;;3.58;;
79401;SDS011;68857;47.916;106.940;2023-05-29T05:03:25;5.10;;;3.80;;
79401;SDS011;68857;47.916;106.940;2023-05-29T05:05:52;6.22;;;4.20;;
79401;SDS011;68857;47.916;106.940;2023-05-29T05:08:18;5.07;;;3.63;;
79401;SDS011;68857;47.916;106.940;2023-05-29T05:10:45;5.55;;;3.40;;
79401;SDS011;68857;47.916;106.940;2023-05-29T05:13:11;4.55;;;3.40;;
79401;SDS011;68857;47.916;106.940;2023-05-29T05:15:38;6.63;;;4.20;;
79401;SDS011;68857;47.916;106.940;2023-05-29T05:18:05;5.30;;;3.60;;
79401;SDS011;68857;47.916;106.940;2023-05-29T05:20:31;4.40;;;3.53;;
79401;SDS011;68857;47.916;106.940;2023-05-29T05:22:58;5.63;;;4.03;;
79401;SDS011;68857;47.916;106.940;2023-05-29T05:25:25;4.65;;;3.63;;
79401;SDS011;68857;47.916;106.940;2023-05-29T05:27:51;5.00;;;3.58;;
79401;SDS011;68857;47.916;106.940;2023-05-29T05:30:18;5.28;;;3.95;;
79401;SDS011;68857;47.916;106.940;2023-05-29T05:32:45;5.55;;;4.22;;
79401;SDS011;68857;47.916;106.940;2023-05-29T05:35:13;6.20;;;3.80;;
79401;SDS011;68857;47.916;106.940;2023-05-29T05:37:39;4.80;;;3.85;;
79401;SDS011;68857;47.916;106.940;2023-05-29T05:40:06;5.10;;;3.72;;
79401;SDS011;68857;47.916;106.940;2023-05-29T05:42:34;5.30;;;3.17;;
79401;SDS011;68857;47.916;106.940;2023-05-29T05:45:00;5.60;;;3.28;;
79401;SDS011;68857;47.916;106.940;2023-05-29T05:47:28;5.78;;;4.13;;
79401;SDS011;68857;47.916;106.940;2023-05-29T05:49:55;6.22;;;3.92;;
79401;SDS011;68857;47.916;106.940;2023-05-29T05:52:21;4.63;;;4.20;;
79401;SDS011;68857;47.916;106.940;2023-05-29T05:54:48;4.88;;;3.33;;
79401;SDS011;68857;47.916;106.940;2023-05-29T05:57:15;6.00;;;4.05;;
79401;SDS011;68857;47.916;106.940;2023-05-29T05:59:41;6.05;;;3.63;;
79401;SDS011;68857;47.916;106.940;2023-05-29T06:02:08;4.97;;;3.08;;
79401;SDS011;68857;47.916;106.940;2023-05-29T06:04:35;5.80;;;4.15;;
79401;SDS011;68857;47.916;106.940;2023-05-29T06:07:01;5.32;;;3.67;;
79401;SDS011;68857;47.916;106.940;2023-05-29T06:09:28;6.40;;;3.25;;
79401;SDS011;68857;47.916;106.940;2023-05-29T06:11:54;4.68;;;3.95;;
79401;SDS011;68857;47.916;106.940;2023-05-29T06:14:21;5.50;;;3.83;;
79401;SDS011;68857;47.916;106.940;2023-05-29T06:16:51;4.72;;;3.75;;
79401;SDS011;68857;47.916;106.940;2023-05-29T06:19:18;4.70;;;4.05;;
79401;SDS011;68857;47.916;106.940;2023-05-29T06:21:46;4.60;;;4.07;;
79401;SDS011;68857;47.916;106.940;2023-05-29T06:24:12;8.07;;;3.30;;
79401;SDS011;68857;47.916;106.940;2023-05-29T06:26:39;4.45;;;3.40;;
79401;SDS011;68857;47.916;106.940;2023-05-29T06:29:06;5.30;;;3.70;;
79401;SDS011;68857;47.916;106.940;2023-05-29T06:31:32;4.60;;;4.15;;
79401;SDS011;68857;47.916;106.940;2023-05-29T06:33:59;4.15;;;3.38;;
79401;SDS011;68857;47.916;106.940;2023-05-29T06:36:25;4.43;;;3.33;;
79401;SDS011;68857;47.916;106.940;2023-05-29T06:38:52;4.75;;;3.67;;
79401;SDS011;68857;47.916;106.940;2023-05-29T06:41:19;5.40;;;3.33;;
79401;SDS011;68857;47.916;106.940;2023-05-29T06:43:46;5.00;;;3.00;;
79401;SDS011;68857;47.916;106.940;2023-05-29T06:46:14;3.83;;;3.05;;
79401;SDS011;68857;47.916;106.940;2023-05-29T06:48:40;5.00;;;2.75;;
79401;SDS011;68857;47.916;106.940;2023-05-29T06:51:07;4.03;;;3.53;;
79401;SDS011;68857;47.916;106.940;2023-05-29T06:53:35;5.72;;;3.60;;
79401;SDS011;68857;47.916;106.940;2023-05-29T06:56:01;4.30;;;3.25;;
79401;SDS011;68857;47.916;106.940;2023-05-29T06:58:29;3.97;;;3.38;;
79401;SDS011;68857;47.916;106.940;2023-05-29T07:00:56;4.57;;;3.53;;
79401;SDS011;68857;47.916;106.940;2023-05-29T07:03:23;5.28;;;4.38;;
79401;SDS011;68857;47.916;106.940;2023-05-29T07:05:50;4.15;;;3.80;;
79401;SDS011;68857;47.916;106.940;2023-05-29T07:08:17;3.90;;;3.35;;
79401;SDS011;68857;47.916;106.940;2023-05-29T07:10:44;6.45;;;3.72;;
79401;SDS011;68857;47.916;106.940;2023-05-29T07:13:14;4.93;;;3.55;;
79401;SDS011;68857;47.916;106.940;2023-05-29T07:15:41;5.43;;;3.58;;
79401;SDS011;68857;47.916;106.940;2023-05-29T07:18:08;4.03;;;3.55;;
79401;SDS011;68857;47.916;106.940;2023-05-29T07:20:35;3.75;;;3.42;;
79401;SDS011;68857;47.916;106.940;2023-05-29T07:23:02;3.83;;;3.03;;
79401;SDS011;68857;47.916;106.940;2023-05-29T07:25:29;3.95;;;3.58;;
79401;SDS011;68857;47.916;106.940;2023-05-29T07:27:56;7.20;;;6.60;;
79401;SDS011;68857;47.916;106.940;2023-05-29T07:30:23;4.05;;;3.63;;
79401;SDS011;68857;47.916;106.940;2023-05-29T07:32:49;3.15;;;2.75;;
79401;SDS011;68857;47.916;106.940;2023-05-29T07:35:16;4.18;;;3.67;;
79401;SDS011;68857;47.916;106.940;2023-05-29T07:37:43;3.33;;;2.92;;
79401;SDS011;68857;47.916;106.940;2023-05-29T07:40:09;3.30;;;3.00;;
79401;SDS011;68857;47.916;106.940;2023-05-29T07:42:37;4.00;;;2.67;;
79401;SDS011;68857;47.916;106.940;2023-05-29T07:45:03;4.22;;;3.50;;
79401;SDS011;68857;47.916;106.940;2023-05-29T07:47:30;4.25;;;3.80;;
79401;SDS011;68857;47.916;106.940;2023-05-29T07:49:57;3.63;;;3.28;;
79401;SDS011;68857;47.916;106.940;2023-05-29T07:52:23;4.50;;;2.40;;
79401;SDS011;68857;47.916;106.940;2023-05-29T07:54:50;4.68;;;2.60;;
79401;SDS011;68857;47.916;106.940;2023-05-29T07:57:17;5.90;;;3.28;;
79401;SDS011;68857;47.916;106.940;2023-05-29T07:59:43;3.97;;;3.58;;
79401;SDS011;68857;47.916;106.940;2023-05-29T08:02:10;3.88;;;3.50;;
79401;SDS011;68857;47.916;106.940;2023-05-29T08:04:37;3.67;;;3.05;;
79401;SDS011;68857;47.916;106.940;2023-05-29T08:07:03;3.17;;;2.88;;
79401;SDS011;68857;47.916;106.940;2023-05-29T08:09:30;3.33;;;2.85;;
79401;SDS011;68857;47.916;106.940;2023-05-29T08:11:56;2.80;;;2.55;;
79401;SDS011;68857;47.916;106.940;2023-05-29T08:14:24;4.05;;;3.65;;
79401;SDS011;68857;47.916;106.940;2023-05-29T08:16:51;3.92;;;3.28;;
79401;SDS011;68857;47.916;106.940;2023-05-29T08:19:18;4.22;;;2.72;;
79401;SDS011;68857;47.916;106.940;2023-05-29T08:21:44;3.53;;;2.97;;
79401;SDS011;68857;47.916;106.940;2023-05-29T08:24:11;3.55;;;3.25;;
79401;SDS011;68857;47.916;106.940;2023-05-29T08:26:37;4.20;;;2.75;;
79401;SDS011;68857;47.916;106.940;2023-05-29T08:29:04;3.50;;;3.10;;
79401;SDS011;68857;47.916;106.940;2023-05-29T08:31:30;4.20;;;3.33;;
79401;SDS011;68857;47.916;106.940;2023-05-29T08:33:57;3.58;;;3.13;;
79401;SDS011;68857;47.916;106.940;2023-05-29T08:36:24;3.17;;;2.22;;
79401;SDS011;68857;47.916;106.940;2023-05-29T08:38:51;4.22;;;2.97;;
79401;SDS011;68857;47.916;106.940;2023-05-29T08:41:20;3.80;;;3.50;;
79401;SDS011;68857;47.916;106.940;2023-05-29T08:43:48;3.78;;;3.17;;
79401;SDS011;68857;47.916;106.940;2023-05-29T08:46:15;4.10;;;3.25;;
79401;SDS011;68857;47.916;106.940;2023-05-29T08:48:47;3.13;;;2.75;;
79401;SDS011;68857;47.916;106.940;2023-05-29T08:51:16;3.88;;;2.55;;
79401;SDS011;68857;47.916;106.940;2023-05-29T08:56:12;3.60;;;3.08;;
79401;SDS011;68857;47.916;106.940;2023-05-29T08:58:39;3.88;;;3.42;;
79401;SDS011;68857;47.916;106.940;2023-05-29T09:01:06;4.80;;;4.43;;
79401;SDS011;68857;47.916;106.940;2023-05-29T09:03:33;4.55;;;4.22;;
79401;SDS011;68857;47.916;106.940;2023-05-29T09:06:03;3.90;;;2.85;;
79401;SDS011;68857;47.916;106.940;2023-05-29T09:08:30;3.22;;;2.92;;
79401;SDS011;68857;47.916;106.940;2023-05-29T09:10:58;3.35;;;3.05;;
79401;SDS011;68857;47.916;106.940;2023-05-29T09:13:27;3.40;;;2.95;;
79401;SDS011;68857;47.916;106.940;2023-05-29T09:15:58;3.63;;;2.55;;
79401;SDS011;68857;47.916;106.940;2023-05-29T09:18:34;3.60;;;3.30;;
79401;SDS011;68857;47.916;106.940;2023-05-29T09:21:06;3.38;;;2.92;;
79401;SDS011;68857;47.916;106.940;2023-05-29T09:23:35;3.28;;;2.78;;
79401;SDS011;68857;47.916;106.940;2023-05-29T09:26:02;3.65;;;2.88;;
79401;SDS011;68857;47.916;106.940;2023-05-29T09:28:30;3.72;;;3.03;;
79401;SDS011;68857;47.916;106.940;2023-05-29T09:30:57;3.13;;;2.65;;
79401;SDS011;68857;47.916;106.940;2023-05-29T09:33:24;3.35;;;3.05;;
79401;SDS011;68857;47.916;106.940;2023-05-29T09:35:51;2.53;;;2.28;;
79401;SDS011;68857;47.916;106.940;2023-05-29T09:38:18;3.38;;;2.97;;
79401;SDS011;68857;47.916;106.940;2023-05-29T09:40:45;4.25;;;3.22;;
79401;SDS011;68857;47.916;106.940;2023-05-29T09:43:13;3.83;;;2.58;;
79401;SDS011;68857;47.916;106.940;2023-05-29T09:45:49;2.95;;;2.08;;
79401;SDS011;68857;47.916;106.940;2023-05-29T09:50:43;3.47;;;2.92;;
79401;SDS011;68857;47.916;106.940;2023-05-29T09:53:20;3.22;;;2.33;;
79401;SDS011;68857;47.916;106.940;2023-05-29T09:55:47;3.40;;;2.72;;
79401;SDS011;68857;47.916;106.940;2023-05-29T09:58:15;3.38;;;3.08;;
79401;SDS011;68857;47.916;106.940;2023-05-29T10:00:44;4.72;;;2.78;;
79401;SDS011;68857;47.916;106.940;2023-05-29T10:03:10;3.55;;;2.50;;
79401;SDS011;68857;47.916;106.940;2023-05-29T10:05:38;2.85;;;2.25;;
79401;SDS011;68857;47.916;106.940;2023-05-29T10:08:05;3.00;;;2.70;;
79401;SDS011;68857;47.916;106.940;2023-05-29T10:10:32;3.58;;;3.28;;
79401;SDS011;68857;47.916;106.940;2023-05-29T10:13:00;4.05;;;3.22;;
79401;SDS011;68857;47.916;106.940;2023-05-29T10:15:29;2.45;;;2.22;;
79401;SDS011;68857;47.916;106.940;2023-05-29T10:17:57;3.47;;;2.47;;
79401;SDS011;68857;47.916;106.940;2023-05-29T10:20:25;3.95;;;2.53;;
79401;SDS011;68857;47.916;106.940;2023-05-29T10:22:52;3.38;;;2.97;;
79401;SDS011;68857;47.916;106.940;2023-05-29T10:25:20;3.17;;;2.33;;
79401;SDS011;68857;47.916;106.940;2023-05-29T10:27:47;3.00;;;2.20;;
79401;SDS011;68857;47.916;106.940;2023-05-29T10:33:03;2.72;;;2.30;;
79401;SDS011;68857;47.916;106.940;2023-05-29T10:35:44;3.35;;;2.20;;
79401;SDS011;68857;47.916;106.940;2023-05-29T10:38:13;2.50;;;2.03;;
79401;SDS011;68857;47.916;106.940;2023-05-29T10:40:42;2.85;;;2.00;;
79401;SDS011;68857;47.916;106.940;2023-05-29T10:43:09;3.22;;;2.92;;
79401;SDS011;68857;47.916;106.940;2023-05-29T10:45:57;2.65;;;1.95;;
79401;SDS011;68857;47.916;106.940;2023-05-29T10:50:54;2.78;;;2.47;;
79401;SDS011;68857;47.916;106.940;2023-05-29T10:53:24;2.63;;;2.25;;
79401;SDS011;68857;47.916;106.940;2023-05-29T10:55:52;3.17;;;2.78;;
79401;SDS011;68857;47.916;106.940;2023-05-29T10:58:21;3.13;;;2.25;;
79401;SDS011;68857;47.916;106.940;2023-05-29T11:00:50;2.95;;;2.22;;
79401;SDS011;68857;47.916;106.940;2023-05-29T11:03:22;3.15;;;2.60;;
79401;SDS011;68857;47.916;106.940;2023-05-29T11:06:02;3.83;;;2.78;;
79401;SDS011;68857;47.916;106.940;2023-05-29T11:08:45;3.05;;;1.95;;
79401;SDS011;68857;47.916;106.940;2023-05-29T11:11:15;3.58;;;2.40;;
79401;SDS011;68857;47.916;106.940;2023-05-29T11:13:55;3.13;;;2.72;;
79401;SDS011;68857;47.916;106.940;2023-05-29T11:18:54;2.53;;;1.75;;
79401;SDS011;68857;47.916;106.940;2023-05-29T11:23:53;3.83;;;2.97;;
79401;SDS011;68857;47.916;106.940;2023-05-29T11:26:21;3.30;;;2.47;;
79401;SDS011;68857;47.916;106.940;2023-05-29T11:28:48;3.85;;;2.13;;
79401;SDS011;68857;47.916;106.940;2023-05-29T11:31:15;3.15;;;2.35;;
79401;SDS011;68857;47.916;106.940;2023-05-29T11:33:48;3.28;;;2.13;;
79401;SDS011;68857;47.916;106.940;2023-05-29T11:36:17;6.13;;;2.20;;
79401;SDS011;68857;47.916;106.940;2023-05-29T11:38:45;3.25;;;1.55;;
79401;SDS011;68857;47.916;106.940;2023-05-29T11:41:11;3.70;;;2.35;;
79401;SDS011;68857;47.916;106.940;2023-05-29T11:43:38;4.07;;;3.30;;
79401;SDS011;68857;47.916;106.940;2023-05-29T11:46:17;2.53;;;2.03;;
79401;SDS011;68857;47.916;106.940;2023-05-29T11:48:45;4.88;;;2.10;;
79401;SDS011;68857;47.916;106.940;2023-05-29T11:51:11;4.50;;;1.95;;
79401;SDS011;68857;47.916;106.940;2023-05-29T11:53:42;3.25;;;2.08;;
79401;SDS011;68857;47.916;106.940;2023-05-29T11:56:09;4.15;;;2.03;;
79401;SDS011;68857;47.916;106.940;2023-05-29T11:58:37;2.78;;;2.17;;
79401;SDS011;68857;47.916;106.940;2023-05-29T12:01:04;2.90;;;2.17;;
79401;SDS011;68857;47.916;106.940;2023-05-29T12:03:37;2.83;;;2.08;;
79401;SDS011;68857;47.916;106.940;2023-05-29T12:06:04;3.95;;;2.80;;
79401;SDS011;68857;47.916;106.940;2023-05-29T12:08:31;4.18;;;2.17;;
79401;SDS011;68857;47.916;106.940;2023-05-29T12:10:58;4.53;;;2.55;;
79401;SDS011;68857;47.916;106.940;2023-05-29T12:13:25;4.47;;;2.95;;
79401;SDS011;68857;47.916;106.940;2023-05-29T12:15:52;4.75;;;2.10;;
79401;SDS011;68857;47.916;106.940;2023-05-29T12:18:19;4.30;;;2.60;;
79401;SDS011;68857;47.916;106.940;2023-05-29T12:20:46;3.67;;;2.40;;
79401;SDS011;68857;47.916;106.940;2023-05-29T12:23:12;4.13;;;3.22;;
79401;SDS011;68857;47.916;106.940;2023-05-29T12:25:39;3.92;;;2.55;;
79401;SDS011;68857;47.916;106.940;2023-05-29T12:28:06;4.15;;;2.58;;
79401;SDS011;68857;47.916;106.940;2023-05-29T12:30:36;5.40;;;2.40;;
79401;SDS011;68857;47.916;106.940;2023-05-29T12:35:31;4.97;;;2.20;;
79401;SDS011;68857;47.916;106.940;2023-05-29T12:38:02;5.70;;;2.70;;
79401;SDS011;68857;47.916;106.940;2023-05-29T12:40:33;5.78;;;2.40;;
79401;SDS011;68857;47.916;106.940;2023-05-29T12:45:29;3.75;;;1.90;;
79401;SDS011;68857;47.916;106.940;2023-05-29T12:47:57;4.45;;;2.40;;
79401;SDS011;68857;47.916;106.940;2023-05-29T12:50:25;5.20;;;2.45;;
79401;SDS011;68857;47.916;106.940;2023-05-29T12:52:56;3.25;;;2.53;;
79401;SDS011;68857;47.916;106.940;2023-05-29T12:55:22;3.88;;;2.33;;
79401;SDS011;68857;47.916;106.940;2023-05-29T12:57:53;3.85;;;3.38;;
79401;SDS011;68857;47.916;106.940;2023-05-29T13:00:19;5.07;;;2.53;;
79401;SDS011;68857;47.916;106.940;2023-05-29T13:02:47;5.70;;;2.90;;
79401;SDS011;68857;47.916;106.940;2023-05-29T13:05:14;4.35;;;2.40;;
79401;SDS011;68857;47.916;106.940;2023-05-29T13:07:42;3.75;;;3.35;;
79401;SDS011;68857;47.916;106.940;2023-05-29T13:10:09;5.15;;;3.22;;
79401;SDS011;68857;47.916;106.940;2023-05-29T13:12:35;4.10;;;2.95;;
79401;SDS011;68857;47.916;106.940;2023-05-29T13:15:02;3.90;;;2.72;;
79401;SDS011;68857;47.916;106.940;2023-05-29T13:17:28;6.40;;;3.45;;
79401;SDS011;68857;47.916;106.940;2023-05-29T13:19:55;4.97;;;2.95;;
79401;SDS011;68857;47.916;106.940;2023-05-29T13:22:22;4.50;;;3.30;;
79401;SDS011;68857;47.916;106.940;2023-05-29T13:24:48;4.65;;;3.17;;
79401;SDS011;68857;47.916;106.940;2023-05-29T13:27:15;4.22;;;3.10;;
79401;SDS011;68857;47.916;106.940;2023-05-29T13:29:42;5.22;;;3.30;;
79401;SDS011;68857;47.916;106.940;2023-05-29T13:32:09;7.80;;;3.20;;
79401;SDS011;68857;47.916;106.940;2023-05-29T13:34:36;4.30;;;2.97;;
79401;SDS011;68857;47.916;106.940;2023-05-29T13:37:03;4.93;;;2.85;;
79401;SDS011;68857;47.916;106.940;2023-05-29T13:39:29;6.20;;;3.60;;
79401;SDS011;68857;47.916;106.940;2023-05-29T13:41:56;6.63;;;3.03;;
79401;SDS011;68857;47.916;106.940;2023-05-29T13:44:22;4.47;;;2.70;;
79401;SDS011;68857;47.916;106.940;2023-05-29T13:46:49;3.47;;;2.88;;
79401;SDS011;68857;47.916;106.940;2023-05-29T13:49:16;5.57;;;3.60;;
79401;SDS011;68857;47.916;106.940;2023-05-29T13:51:42;5.40;;;3.08;;
79401;SDS011;68857;47.916;106.940;2023-05-29T13:54:10;5.15;;;2.58;;
79401;SDS011;68857;47.916;106.940;2023-05-29T13:56:36;5.78;;;3.30;;
79401;SDS011;68857;47.916;106.940;2023-05-29T13:59:03;6.35;;;2.40;;
79401;SDS011;68857;47.916;106.940;2023-05-29T14:01:32;4.78;;;3.67;;
79401;SDS011;68857;47.916;106.940;2023-05-29T14:03:59;5.15;;;3.28;;
79401;SDS011;68857;47.916;106.940;2023-05-29T14:06:26;4.60;;;2.88;;
79401;SDS011;68857;47.916;106.940;2023-05-29T14:08:52;5.38;;;3.50;;
79401;SDS011;68857;47.916;106.940;2023-05-29T14:11:20;5.10;;;3.67;;
79401;SDS011;68857;47.916;106.940;2023-05-29T14:13:47;5.20;;;2.63;;
79401;SDS011;68857;47.916;106.940;2023-05-29T14:16:14;4.40;;;2.80;;
79401;SDS011;68857;47.916;106.940;2023-05-29T14:18:41;4.00;;;2.60;;
79401;SDS011;68857;47.916;106.940;2023-05-29T14:21:07;4.97;;;2.75;;
79401;SDS011;68857;47.916;106.940;2023-05-29T14:23:34;4.50;;;2.95;;
79401;SDS011;68857;47.916;106.940;2023-05-29T14:26:01;6.25;;;3.30;;
79401;SDS011;68857;47.916;106.940;2023-05-29T14:28:27;6.07;;;3.72;;
79401;SDS011;68857;47.916;106.940;2023-05-29T14:30:54;5.07;;;3.17;;
79401;SDS011;68857;47.916;106.940;2023-05-29T14:33:20;6.28;;;4.90;;
79401;SDS011;68857;47.916;106.940;2023-05-29T14:35:47;6.43;;;3.50;;
79401;SDS011;68857;47.916;106.940;2023-05-29T14:38:13;6.47;;;3.33;;
79401;SDS011;68857;47.916;106.940;2023-05-29T14:40:39;6.70;;;2.72;;
79401;SDS011;68857;47.916;106.940;2023-05-29T14:43:06;8.35;;;3.17;;
79401;SDS011;68857;47.916;106.940;2023-05-29T14:45:33;4.57;;;3.20;;
79401;SDS011;68857;47.916;106.940;2023-05-29T14:47:59;7.40;;;3.05;;
79401;SDS011;68857;47.916;106.940;2023-05-29T14:50:27;5.25;;;3.40;;